PWSweather.com
Personal Weather Stations
Station Observations
WD4JKH
Forsyth, GA 31029

Forsyth, GA 31029

Lat: 33.033225, Lon: -83.927995

Elevation: 709

Station Type: Davis Vantage VUE

High Low Average
Temperature 47.3°F8.5°C 35.3°F1.8°C 41.2°F5.1°C
Dew Point 43.8°F6.6°C 34.5°F1.4°C 39.6°F4.2°C
Winds 11.5 mph 18.5 kmh Calm Calm 3.0 mph S4.8 kmh S
Wind Gusts 19.0 mph30.6 kmh 1.0 mph1.6 kmh 8.0 mph12.9 kmh
Humidity 98% 85% 94%
Pressure 30.23 in1023.7 mb 30.09 in1019.0 mb -
Precipitation 0.21 in5.3 mm - -
Hour Temp Dew Point Humidity Winds Wind Gusts Pressure Precip Precip Rate Daily Precip Total
12:03 AM 41.7°F5.4°C 39.8°F4.3°C 93% 3.9 mph ENE6.3 kmh ENE 7.0 mph11.3 kmh 30.16 in1021.3 mb 0.03 in0.8 mm 0.60 in15.2 mm 0.03 in0.8 mm
12:08 AM 41.7°F5.4°C 40.1°F4.5°C 94% 3.5 mph ENE5.6 kmh ENE 8.0 mph12.9 kmh 30.15 in1021.0 mb 0.03 in0.8 mm 0.00 in0.0 mm 0.03 in0.8 mm
12:13 AM 41.7°F5.4°C 40.1°F4.5°C 94% 3.9 mph NE6.3 kmh NE 8.0 mph12.9 kmh 30.15 in1021.0 mb 0.03 in0.8 mm 0.00 in0.0 mm 0.03 in0.8 mm
12:18 AM 41.7°F5.4°C 40.1°F4.5°C 94% 2.5 mph ENE4.0 kmh ENE 8.0 mph12.9 kmh 30.15 in1021.0 mb 0.03 in0.8 mm 0.00 in0.0 mm 0.03 in0.8 mm
12:23 AM 41.7°F5.4°C 40.3°F4.6°C 95% 2.8 mph ENE4.5 kmh ENE 8.0 mph12.9 kmh 30.16 in1021.3 mb 0.03 in0.8 mm 0.00 in0.0 mm 0.03 in0.8 mm
12:28 AM 41.7°F5.4°C 40.3°F4.6°C 95% 5.4 mph ENE8.7 kmh ENE 8.0 mph12.9 kmh 30.14 in1020.7 mb 0.04 in1.0 mm 0.12 in3.0 mm 0.04 in1.0 mm
12:33 AM 41.6°F5.3°C 40.2°F4.6°C 95% 3.0 mph ENE4.8 kmh ENE 8.0 mph12.9 kmh 30.14 in1020.7 mb 0.05 in1.3 mm 0.12 in3.0 mm 0.05 in1.3 mm
12:38 AM 41.5°F5.3°C 40.1°F4.5°C 95% 4.7 mph ENE7.6 kmh ENE 8.0 mph12.9 kmh 30.14 in1020.7 mb 0.06 in1.5 mm 0.12 in3.0 mm 0.06 in1.5 mm
12:43 AM 41.3°F5.2°C 39.9°F4.4°C 95% 4.2 mph ENE6.8 kmh ENE 8.0 mph12.9 kmh 30.14 in1020.7 mb 0.06 in1.5 mm 0.00 in0.0 mm 0.06 in1.5 mm
12:48 AM 41.3°F5.2°C 39.9°F4.4°C 95% 1.8 mph N2.9 kmh N 9.0 mph14.5 kmh 30.15 in1021.0 mb 0.04 in1.0 mm 0.00 in0.0 mm 0.06 in1.5 mm
12:53 AM 41.3°F5.2°C 40.0°F4.4°C 95% 3.7 mph ENE6.0 kmh ENE 9.0 mph14.5 kmh 30.14 in1020.7 mb 0.05 in1.3 mm 0.12 in3.0 mm 0.07 in1.8 mm
12:58 AM 41.2°F5.1°C 39.9°F4.4°C 95% 4.9 mph ENE7.9 kmh ENE 9.0 mph14.5 kmh 30.13 in1020.3 mb 0.06 in1.5 mm 0.12 in3.0 mm 0.08 in2.0 mm
01:03 AM 41.2°F5.1°C 40.1°F4.5°C 96% 2.7 mph NE4.3 kmh NE 9.0 mph14.5 kmh 30.13 in1020.3 mb 0.05 in1.3 mm 0.00 in0.0 mm 0.08 in2.0 mm
01:08 AM 41.1°F5.1°C 40.0°F4.4°C 96% 3.8 mph ENE6.1 kmh ENE 9.0 mph14.5 kmh 30.13 in1020.3 mb 0.06 in1.5 mm 0.12 in3.0 mm 0.01 in0.3 mm
01:13 AM 41.1°F5.1°C 40.0°F4.4°C 96% 3.9 mph ENE6.3 kmh ENE 9.0 mph14.5 kmh 30.13 in1020.3 mb 0.06 in1.5 mm 0.00 in0.0 mm 0.01 in0.3 mm
01:18 AM 41.1°F5.1°C 40.0°F4.4°C 96% 3.3 mph ENE5.3 kmh ENE 8.0 mph12.9 kmh 30.12 in1020.0 mb 0.06 in1.5 mm 0.00 in0.0 mm 0.01 in0.3 mm
01:23 AM 41.1°F5.1°C 40.0°F4.4°C 96% 3.6 mph ENE5.8 kmh ENE 8.0 mph12.9 kmh 30.12 in1020.0 mb 0.06 in1.5 mm 0.00 in0.0 mm 0.01 in0.3 mm
01:28 AM 41.1°F5.1°C 40.0°F4.4°C 96% 5.2 mph ENE8.4 kmh ENE 8.0 mph12.9 kmh 30.12 in1020.0 mb 0.05 in1.3 mm 0.00 in0.0 mm 0.01 in0.3 mm
01:33 AM 41.0°F5.0°C 39.9°F4.4°C 96% 4.9 mph NE7.9 kmh NE 11.0 mph17.7 kmh 30.11 in1019.6 mb 0.04 in1.0 mm 0.00 in0.0 mm 0.01 in0.3 mm
01:38 AM 41.0°F5.0°C 39.9°F4.4°C 96% 5.4 mph ENE8.7 kmh ENE 11.0 mph17.7 kmh 30.11 in1019.6 mb 0.06 in1.5 mm 0.24 in6.1 mm 0.04 in1.0 mm
01:43 AM 41.0°F5.0°C 39.9°F4.4°C 96% 3.3 mph NE5.3 kmh NE 11.0 mph17.7 kmh 30.11 in1019.6 mb 0.09 in2.3 mm 0.36 in9.1 mm 0.07 in1.8 mm
01:48 AM 41.0°F5.0°C 39.9°F4.4°C 96% 2.9 mph NE4.7 kmh NE 11.0 mph17.7 kmh 30.11 in1019.6 mb 0.09 in2.3 mm 0.00 in0.0 mm 0.07 in1.8 mm
01:53 AM 41.0°F5.0°C 39.9°F4.4°C 96% 3.1 mph ENE5.0 kmh ENE 9.0 mph14.5 kmh 30.10 in1019.3 mb 0.08 in2.0 mm 0.00 in0.0 mm 0.07 in1.8 mm
01:58 AM 41.0°F5.0°C 39.9°F4.4°C 96% 4.1 mph NE6.6 kmh NE 9.0 mph14.5 kmh 30.10 in1019.3 mb 0.07 in1.8 mm 0.00 in0.0 mm 0.07 in1.8 mm
02:03 AM 41.1°F5.1°C 40.3°F4.6°C 97% 4.9 mph ENE7.9 kmh ENE 9.0 mph14.5 kmh 30.09 in1019.0 mb 0.07 in1.8 mm 0.00 in0.0 mm 0.08 in2.0 mm
02:08 AM 41.1°F5.1°C 40.3°F4.6°C 97% 5.4 mph NE8.7 kmh NE 10.0 mph16.1 kmh 30.09 in1019.0 mb 0.07 in1.8 mm 0.00 in0.0 mm 0.08 in2.0 mm
02:13 AM 41.2°F5.1°C 40.4°F4.7°C 97% 3.3 mph NE5.3 kmh NE 10.0 mph16.1 kmh 30.10 in1019.3 mb 0.07 in1.8 mm 0.00 in0.0 mm 0.08 in2.0 mm
02:18 AM 41.2°F5.1°C 40.4°F4.7°C 97% 6.7 mph ENE10.8 kmh ENE 12.0 mph19.3 kmh 30.10 in1019.3 mb 0.07 in1.8 mm 0.00 in0.0 mm 0.08 in2.0 mm
02:23 AM 41.2°F5.1°C 40.4°F4.7°C 97% 1.2 mph ENE1.9 kmh ENE 12.0 mph19.3 kmh 30.10 in1019.3 mb 0.09 in2.3 mm 0.24 in6.1 mm 0.10 in2.5 mm
02:28 AM 41.2°F5.1°C 40.4°F4.7°C 97% 3.7 mph ENE6.0 kmh ENE 12.0 mph19.3 kmh 30.09 in1019.0 mb 0.09 in2.3 mm 0.00 in0.0 mm 0.10 in2.5 mm
02:33 AM 41.2°F5.1°C 40.4°F4.7°C 97% 3.3 mph ENE5.3 kmh ENE 12.0 mph19.3 kmh 30.09 in1019.0 mb 0.10 in2.5 mm 0.12 in3.0 mm 0.11 in2.8 mm
02:38 AM 41.2°F5.1°C 40.4°F4.7°C 97% 1.0 mph NW1.6 kmh NW 8.0 mph12.9 kmh 30.11 in1019.6 mb 0.08 in2.0 mm 0.00 in0.0 mm 0.12 in3.0 mm
02:43 AM 41.2°F5.1°C 40.4°F4.7°C 97% 4.2 mph NE6.8 kmh NE 10.0 mph16.1 kmh 30.10 in1019.3 mb 0.06 in1.5 mm 0.00 in0.0 mm 0.13 in3.3 mm
02:48 AM 41.3°F5.2°C 40.5°F4.7°C 97% 2.8 mph NE4.5 kmh NE 10.0 mph16.1 kmh 30.11 in1019.6 mb 0.07 in1.8 mm 0.12 in3.0 mm 0.14 in3.6 mm
02:53 AM 41.3°F5.2°C 40.5°F4.7°C 97% 6.8 mph NE10.9 kmh NE 11.0 mph17.7 kmh 30.10 in1019.3 mb 0.09 in2.3 mm 0.24 in6.1 mm 0.16 in4.1 mm
02:58 AM 41.2°F5.1°C 40.4°F4.7°C 97% 5.3 mph NNW8.5 kmh NNW 12.0 mph19.3 kmh 30.12 in1020.0 mb 0.09 in2.3 mm 0.00 in0.0 mm 0.16 in4.1 mm
03:03 AM 40.9°F4.9°C 40.1°F4.5°C 97% 3.5 mph NNW5.6 kmh NNW 12.0 mph19.3 kmh 30.13 in1020.3 mb 0.08 in2.0 mm 0.00 in0.0 mm 0.16 in4.1 mm
03:08 AM 40.7°F4.8°C 39.9°F4.4°C 97% 8.6 mph NNE13.8 kmh NNE 14.0 mph22.5 kmh 30.12 in1020.0 mb 0.09 in2.3 mm 0.12 in3.0 mm 0.17 in4.3 mm
03:13 AM 40.4°F4.7°C 39.6°F4.2°C 97% 3.7 mph N6.0 kmh N 14.0 mph22.5 kmh 30.13 in1020.3 mb 0.09 in2.3 mm 0.00 in0.0 mm 0.17 in4.3 mm
03:18 AM 40.1°F4.5°C 39.0°F3.9°C 96% 7.2 mph NW11.6 kmh NW 15.0 mph24.1 kmh 30.16 in1021.3 mb 0.09 in2.3 mm 0.00 in0.0 mm 0.17 in4.3 mm
03:23 AM 39.6°F4.2°C 38.5°F3.6°C 96% 7.6 mph N12.2 kmh N 19.0 mph30.6 kmh 30.14 in1020.7 mb 0.08 in2.0 mm 0.00 in0.0 mm 0.18 in4.6 mm
03:28 AM 39.4°F4.1°C 38.3°F3.5°C 96% 7.2 mph N11.6 kmh N 19.0 mph30.6 kmh 30.14 in1020.7 mb 0.08 in2.0 mm 0.00 in0.0 mm 0.18 in4.6 mm
03:33 AM 39.2°F4.0°C 38.1°F3.4°C 96% 9.9 mph NE15.9 kmh NE 19.0 mph30.6 kmh 30.14 in1020.7 mb 0.07 in1.8 mm 0.00 in0.0 mm 0.18 in4.6 mm
03:38 AM 39.1°F3.9°C 38.0°F3.3°C 96% 4.3 mph NNE6.9 kmh NNE 19.0 mph30.6 kmh 30.15 in1021.0 mb 0.06 in1.5 mm 0.00 in0.0 mm 0.18 in4.6 mm
03:43 AM 39.0°F3.9°C 38.2°F3.4°C 97% 4.5 mph N7.2 kmh N 16.0 mph25.7 kmh 30.15 in1021.0 mb 0.05 in1.3 mm 0.00 in0.0 mm 0.18 in4.6 mm
03:48 AM 38.9°F3.8°C 38.1°F3.4°C 97% 4.4 mph NNE7.1 kmh NNE 16.0 mph25.7 kmh 30.15 in1021.0 mb 0.04 in1.0 mm 0.00 in0.0 mm 0.18 in4.6 mm
03:53 AM 38.9°F3.8°C 38.1°F3.4°C 97% 6.4 mph NNE10.3 kmh NNE 14.0 mph22.5 kmh 30.14 in1020.7 mb 0.03 in0.8 mm 0.00 in0.0 mm 0.19 in4.8 mm
03:58 AM 38.8°F3.8°C 38.0°F3.3°C 97% 4.2 mph NNE6.8 kmh NNE 14.0 mph22.5 kmh 30.14 in1020.7 mb 0.03 in0.8 mm 0.00 in0.0 mm 0.19 in4.8 mm
04:03 AM 38.7°F3.7°C 37.9°F3.3°C 97% 4.1 mph N6.6 kmh N 15.0 mph24.1 kmh 30.14 in1020.7 mb 0.04 in1.0 mm 0.01 in0.3 mm 0.20 in5.1 mm
04:08 AM 38.6°F3.7°C 37.8°F3.2°C 97% 3.2 mph NNE5.1 kmh NNE 15.0 mph24.1 kmh 30.14 in1020.7 mb 0.03 in0.8 mm 0.00 in0.0 mm 0.20 in5.1 mm
04:13 AM 38.5°F3.6°C 37.7°F3.2°C 97% 5.1 mph NE8.2 kmh NE 15.0 mph24.1 kmh 30.14 in1020.7 mb 0.03 in0.8 mm 0.00 in0.0 mm 0.20 in5.1 mm
04:18 AM 38.5°F3.6°C 37.7°F3.2°C 97% 6.0 mph NE9.7 kmh NE 15.0 mph24.1 kmh 30.14 in1020.7 mb 0.03 in0.8 mm 0.00 in0.0 mm 0.20 in5.1 mm
04:23 AM 38.3°F3.5°C 37.5°F3.1°C 97% 7.5 mph NE12.1 kmh NE 15.0 mph24.1 kmh 30.14 in1020.7 mb 0.02 in0.5 mm 0.00 in0.0 mm 0.20 in5.1 mm
04:28 AM 38.1°F3.4°C 37.3°F2.9°C 97% 6.4 mph NE10.3 kmh NE 15.0 mph24.1 kmh 30.14 in1020.7 mb 0.02 in0.5 mm 0.00 in0.0 mm 0.20 in5.1 mm
04:33 AM 37.9°F3.3°C 37.1°F2.8°C 97% 8.9 mph NE14.3 kmh NE 15.0 mph24.1 kmh 30.14 in1020.7 mb 0.02 in0.5 mm 0.00 in0.0 mm 0.20 in5.1 mm
04:38 AM 37.7°F3.2°C 36.7°F2.6°C 96% 10.1 mph NE16.3 kmh NE 18.0 mph29.0 kmh 30.14 in1020.7 mb 0.02 in0.5 mm 0.00 in0.0 mm 0.20 in5.1 mm
04:43 AM 37.6°F3.1°C 36.5°F2.5°C 96% 8.6 mph NE13.8 kmh NE 18.0 mph29.0 kmh 30.14 in1020.7 mb 0.02 in0.5 mm 0.00 in0.0 mm 0.20 in5.1 mm
04:48 AM 37.4°F3.0°C 36.3°F2.4°C 96% 8.1 mph NNE13.0 kmh NNE 18.0 mph29.0 kmh 30.14 in1020.7 mb 0.02 in0.5 mm 0.00 in0.0 mm 0.20 in5.1 mm
04:53 AM 37.4°F3.0°C 36.3°F2.4°C 96% 5.9 mph NE9.5 kmh NE 18.0 mph29.0 kmh 30.13 in1020.3 mb 0.01 in0.3 mm 0.00 in0.0 mm 0.20 in5.1 mm
04:57 AM 37.3°F2.9°C 36.3°F2.4°C 96% 6.8 mph NE10.9 kmh NE 17.0 mph27.4 kmh 30.13 in1020.3 mb 0.01 in0.3 mm 0.00 in0.0 mm 0.20 in5.1 mm
05:02 AM 37.3°F2.9°C 36.5°F2.5°C 97% 5.8 mph NE9.3 kmh NE 16.0 mph25.7 kmh 30.12 in1020.0 mb 0.00 in0.0 mm 0.00 in0.0 mm 0.20 in5.1 mm
05:07 AM 37.2°F2.9°C 36.4°F2.4°C 97% 7.8 mph NE12.6 kmh NE 15.0 mph24.1 kmh 30.12 in1020.0 mb 0.00 in0.0 mm 0.00 in0.0 mm 0.20 in5.1 mm
05:12 AM 37.0°F2.8°C 36.2°F2.3°C 97% 11.5 mph NE18.5 kmh NE 18.0 mph29.0 kmh 30.12 in1020.0 mb 0.00 in0.0 mm 0.00 in0.0 mm 0.20 in5.1 mm
05:17 AM 37.0°F2.8°C 36.2°F2.3°C 97% 9.6 mph NE15.4 kmh NE 18.0 mph29.0 kmh 30.13 in1020.3 mb 0.01 in0.3 mm 0.12 in3.0 mm 0.21 in5.3 mm
05:22 AM 36.9°F2.7°C 36.1°F2.3°C 97% 5.6 mph NE9.0 kmh NE 18.0 mph29.0 kmh 30.13 in1020.3 mb 0.01 in0.3 mm 0.00 in0.0 mm 0.21 in5.3 mm
05:27 AM 36.9°F2.7°C 36.1°F2.3°C 97% 4.7 mph NE7.6 kmh NE 18.0 mph29.0 kmh 30.14 in1020.7 mb 0.01 in0.3 mm 0.00 in0.0 mm 0.21 in5.3 mm
05:32 AM 36.9°F2.7°C 36.1°F2.3°C 97% 5.9 mph NE9.5 kmh NE 16.0 mph25.7 kmh 30.13 in1020.3 mb 0.01 in0.3 mm 0.00 in0.0 mm 0.21 in5.3 mm
05:37 AM 36.7°F2.6°C 35.9°F2.2°C 97% 6.5 mph NNE10.5 kmh NNE 14.0 mph22.5 kmh 30.14 in1020.7 mb 0.01 in0.3 mm 0.00 in0.0 mm 0.21 in5.3 mm
05:42 AM 36.6°F2.6°C 35.8°F2.1°C 97% 5.6 mph NE9.0 kmh NE 14.0 mph22.5 kmh 30.13 in1020.3 mb 0.01 in0.3 mm 0.00 in0.0 mm 0.21 in5.3 mm
05:47 AM 36.5°F2.5°C 35.7°F2.1°C 97% 8.1 mph NE13.0 kmh NE 14.0 mph22.5 kmh 30.13 in1020.3 mb 0.01 in0.3 mm 0.00 in0.0 mm 0.21 in5.3 mm
05:52 AM 36.4°F2.4°C 35.6°F2.0°C 97% 6.7 mph NE10.8 kmh NE 14.0 mph22.5 kmh 30.13 in1020.3 mb 0.01 in0.3 mm 0.00 in0.0 mm 0.21 in5.3 mm
05:57 AM 36.4°F2.4°C 35.6°F2.0°C 97% 5.3 mph NE8.5 kmh NE 13.0 mph20.9 kmh 30.13 in1020.3 mb 0.01 in0.3 mm 0.00 in0.0 mm 0.21 in5.3 mm
06:02 AM 36.4°F2.4°C 35.6°F2.0°C 97% 7.2 mph NE11.6 kmh NE 13.0 mph20.9 kmh 30.13 in1020.3 mb 0.01 in0.3 mm 0.00 in0.0 mm 0.21 in5.3 mm
06:07 AM 36.3°F2.4°C 35.5°F1.9°C 97% 6.7 mph NE10.8 kmh NE 12.0 mph19.3 kmh 30.13 in1020.3 mb 0.01 in0.3 mm 0.00 in0.0 mm 0.21 in5.3 mm
06:13 AM 36.3°F2.4°C 35.5°F1.9°C 97% 4.0 mph NE6.4 kmh NE 11.0 mph17.7 kmh 30.13 in1020.3 mb 0.01 in0.3 mm 0.00 in0.0 mm 0.21 in5.3 mm
06:18 AM 36.1°F2.3°C 35.3°F1.8°C 97% 8.7 mph NE14.0 kmh NE 14.0 mph22.5 kmh 30.13 in1020.3 mb 0.00 in0.0 mm 0.00 in0.0 mm 0.21 in5.3 mm
06:22 AM 36.1°F2.3°C 35.3°F1.8°C 97% 5.7 mph NNE9.2 kmh NNE 14.0 mph22.5 kmh 30.14 in1020.7 mb 0.00 in0.0 mm 0.00 in0.0 mm 0.21 in5.3 mm
06:27 AM 36.1°F2.3°C 35.3°F1.8°C 97% 6.4 mph NNE10.3 kmh NNE 14.0 mph22.5 kmh 30.13 in1020.3 mb 0.00 in0.0 mm 0.00 in0.0 mm 0.21 in5.3 mm
06:32 AM 36.0°F2.2°C 35.2°F1.8°C 97% 7.7 mph NE12.4 kmh NE 17.0 mph27.4 kmh 30.14 in1020.7 mb 0.00 in0.0 mm 0.00 in0.0 mm 0.21 in5.3 mm
06:37 AM 36.0°F2.2°C 35.2°F1.8°C 97% 5.8 mph NE9.3 kmh NE 17.0 mph27.4 kmh 30.14 in1020.7 mb 0.00 in0.0 mm 0.00 in0.0 mm 0.21 in5.3 mm
06:42 AM 36.0°F2.2°C 35.2°F1.8°C 97% 6.3 mph NE10.1 kmh NE 17.0 mph27.4 kmh 30.13 in1020.3 mb 0.00 in0.0 mm 0.00 in0.0 mm 0.21 in5.3 mm
06:48 AM 36.0°F2.2°C 35.2°F1.8°C 97% 4.9 mph NE7.9 kmh NE 17.0 mph27.4 kmh 30.14 in1020.7 mb 0.00 in0.0 mm 0.00 in0.0 mm 0.21 in5.3 mm
06:53 AM 35.9°F2.2°C 35.1°F1.7°C 97% 6.3 mph NE10.1 kmh NE 11.0 mph17.7 kmh 30.14 in1020.7 mb 0.00 in0.0 mm 0.00 in0.0 mm 0.21 in5.3 mm
06:58 AM 35.9°F2.2°C 35.1°F1.7°C 97% 5.2 mph NE8.4 kmh NE 11.0 mph17.7 kmh 30.14 in1020.7 mb 0.00 in0.0 mm 0.00 in0.0 mm 0.21 in5.3 mm
07:03 AM 35.8°F2.1°C 35.0°F1.7°C 97% 6.1 mph NE9.8 kmh NE 12.0 mph19.3 kmh 30.14 in1020.7 mb 0.00 in0.0 mm 0.00 in0.0 mm 0.21 in5.3 mm
07:08 AM 35.9°F2.2°C 35.1°F1.7°C 97% 4.4 mph NE7.1 kmh NE 12.0 mph19.3 kmh 30.14 in1020.7 mb 0.00 in0.0 mm 0.00 in0.0 mm 0.21 in5.3 mm
07:13 AM 35.9°F2.2°C 35.1°F1.7°C 97% 4.6 mph NE7.4 kmh NE 12.0 mph19.3 kmh 30.14 in1020.7 mb 0.00 in0.0 mm 0.00 in0.0 mm 0.21 in5.3 mm
07:18 AM 35.8°F2.1°C 35.0°F1.7°C 97% 7.8 mph NE12.6 kmh NE 12.0 mph19.3 kmh 30.14 in1020.7 mb 0.00 in0.0 mm 0.00 in0.0 mm 0.21 in5.3 mm
07:23 AM 35.7°F2.1°C 34.9°F1.6°C 97% 7.3 mph NE11.7 kmh NE 14.0 mph22.5 kmh 30.14 in1020.7 mb 0.00 in0.0 mm 0.00 in0.0 mm 0.21 in5.3 mm
07:28 AM 35.6°F2.0°C 34.8°F1.6°C 97% 8.7 mph NE14.0 kmh NE 15.0 mph24.1 kmh 30.14 in1020.7 mb 0.00 in0.0 mm 0.00 in0.0 mm 0.21 in5.3 mm
07:33 AM 35.6°F2.0°C 34.8°F1.6°C 97% 4.1 mph NNE6.6 kmh NNE 15.0 mph24.1 kmh 30.14 in1020.7 mb 0.00 in0.0 mm 0.00 in0.0 mm 0.21 in5.3 mm
07:38 AM 35.6°F2.0°C 34.8°F1.6°C 97% 7.6 mph NE12.2 kmh NE 15.0 mph24.1 kmh 30.15 in1021.0 mb 0.00 in0.0 mm 0.00 in0.0 mm 0.21 in5.3 mm
07:43 AM 35.6°F2.0°C 34.8°F1.6°C 97% 6.7 mph NNE10.8 kmh NNE 15.0 mph24.1 kmh 30.15 in1021.0 mb 0.00 in0.0 mm 0.00 in0.0 mm 0.21 in5.3 mm
07:48 AM 35.6°F2.0°C 34.8°F1.6°C 97% 5.2 mph NE8.4 kmh NE 13.0 mph20.9 kmh 30.15 in1021.0 mb 0.00 in0.0 mm 0.00 in0.0 mm 0.21 in5.3 mm
07:53 AM 35.6°F2.0°C 34.8°F1.6°C 97% 3.6 mph N5.8 kmh N 13.0 mph20.9 kmh 30.16 in1021.3 mb 0.00 in0.0 mm 0.00 in0.0 mm 0.21 in5.3 mm
07:58 AM 35.6°F2.0°C 34.8°F1.6°C 97% 3.7 mph NE6.0 kmh NE 12.0 mph19.3 kmh 30.16 in1021.3 mb 0.00 in0.0 mm 0.00 in0.0 mm 0.21 in5.3 mm
08:03 AM 35.5°F1.9°C 34.7°F1.5°C 97% 5.2 mph NE8.4 kmh NE 11.0 mph17.7 kmh 30.16 in1021.3 mb 0.00 in0.0 mm 0.00 in0.0 mm 0.21 in5.3 mm
08:08 AM 35.5°F1.9°C 34.7°F1.5°C 97% 4.7 mph NE7.6 kmh NE 11.0 mph17.7 kmh 30.17 in1021.7 mb 0.00 in0.0 mm 0.00 in0.0 mm 0.21 in5.3 mm
08:13 AM 35.6°F2.0°C 34.8°F1.6°C 97% 2.3 mph NE3.7 kmh NE 11.0 mph17.7 kmh 30.17 in1021.7 mb 0.00 in0.0 mm 0.00 in0.0 mm 0.21 in5.3 mm
08:18 AM 35.6°F2.0°C 34.8°F1.6°C 97% 3.2 mph NE5.1 kmh NE 11.0 mph17.7 kmh 30.17 in1021.7 mb 0.00 in0.0 mm 0.00 in0.0 mm 0.21 in5.3 mm
08:23 AM 35.6°F2.0°C 34.8°F1.6°C 97% 3.3 mph NE5.3 kmh NE 11.0 mph17.7 kmh 30.17 in1021.7 mb 0.00 in0.0 mm 0.00 in0.0 mm 0.21 in5.3 mm
08:28 AM 35.5°F1.9°C 34.7°F1.5°C 97% 5.4 mph NE8.7 kmh NE 9.0 mph14.5 kmh 30.16 in1021.3 mb 0.00 in0.0 mm 0.00 in0.0 mm 0.21 in5.3 mm
08:33 AM 35.5°F1.9°C 34.7°F1.5°C 97% 2.7 mph NE4.3 kmh NE 9.0 mph14.5 kmh 30.16 in1021.3 mb 0.00 in0.0 mm 0.00 in0.0 mm 0.21 in5.3 mm
08:38 AM 35.4°F1.9°C 34.6°F1.4°C 97% 4.0 mph NE6.4 kmh NE 10.0 mph16.1 kmh 30.16 in1021.3 mb 0.00 in0.0 mm 0.00 in0.0 mm 0.21 in5.3 mm
08:43 AM 35.4°F1.9°C 34.6°F1.4°C 97% 6.1 mph NE9.8 kmh NE 10.0 mph16.1 kmh 30.16 in1021.3 mb 0.00 in0.0 mm 0.00 in0.0 mm 0.21 in5.3 mm
08:48 AM 35.4°F1.9°C 34.6°F1.4°C 97% 3.9 mph NE6.3 kmh NE 10.0 mph16.1 kmh 30.16 in1021.3 mb 0.00 in0.0 mm 0.00 in0.0 mm 0.21 in5.3 mm
08:53 AM 35.4°F1.9°C 34.6°F1.4°C 97% 5.1 mph NE8.2 kmh NE 10.0 mph16.1 kmh 30.16 in1021.3 mb 0.00 in0.0 mm 0.00 in0.0 mm 0.21 in5.3 mm
08:58 AM 35.3°F1.8°C 34.5°F1.4°C 97% 6.2 mph NE10.0 kmh NE 10.0 mph16.1 kmh 30.16 in1021.3 mb 0.00 in0.0 mm 0.00 in0.0 mm 0.21 in5.3 mm
09:03 AM 35.3°F1.8°C 34.5°F1.4°C 97% 3.1 mph NE5.0 kmh NE 10.0 mph16.1 kmh 30.16 in1021.3 mb 0.00 in0.0 mm 0.00 in0.0 mm 0.21 in5.3 mm
09:08 AM 35.3°F1.8°C 34.5°F1.4°C 97% 5.3 mph NE8.5 kmh NE 10.0 mph16.1 kmh 30.16 in1021.3 mb 0.00 in0.0 mm 0.00 in0.0 mm 0.21 in5.3 mm
09:13 AM 35.3°F1.8°C 34.5°F1.4°C 97% 4.7 mph NE7.6 kmh NE 10.0 mph16.1 kmh 30.16 in1021.3 mb 0.00 in0.0 mm 0.00 in0.0 mm 0.21 in5.3 mm
09:18 AM 35.3°F1.8°C 34.5°F1.4°C 97% 1.0 mph NE1.6 kmh NE 9.0 mph14.5 kmh 30.16 in1021.3 mb 0.00 in0.0 mm 0.00 in0.0 mm 0.21 in5.3 mm
09:23 AM 35.5°F1.9°C 34.7°F1.5°C 97% 1.5 mph ENE2.4 kmh ENE 9.0 mph14.5 kmh 30.16 in1021.3 mb 0.00 in0.0 mm 0.00 in0.0 mm 0.21 in5.3 mm
09:28 AM 35.5°F1.9°C 34.7°F1.5°C 97% 2.4 mph NE3.9 kmh NE 8.0 mph12.9 kmh 30.17 in1021.7 mb 0.00 in0.0 mm 0.00 in0.0 mm 0.21 in5.3 mm
09:33 AM 35.6°F2.0°C 34.8°F1.6°C 97% 1.0 mph NE1.6 kmh NE 6.0 mph9.7 kmh 30.17 in1021.7 mb 0.00 in0.0 mm 0.00 in0.0 mm 0.21 in5.3 mm
09:38 AM 35.6°F2.0°C 34.8°F1.6°C 97% 2.0 mph NNW3.2 kmh NNW 6.0 mph9.7 kmh 30.17 in1021.7 mb 0.00 in0.0 mm 0.00 in0.0 mm 0.21 in5.3 mm
09:43 AM 35.7°F2.1°C 34.9°F1.6°C 97% 1.5 mph N2.4 kmh N 6.0 mph9.7 kmh 30.18 in1022.0 mb 0.00 in0.0 mm 0.00 in0.0 mm 0.21 in5.3 mm
09:48 AM 35.7°F2.1°C 34.9°F1.6°C 97% 1.8 mph NNE2.9 kmh NNE 4.0 mph6.4 kmh 30.18 in1022.0 mb 0.00 in0.0 mm 0.00 in0.0 mm 0.21 in5.3 mm
09:53 AM 35.7°F2.1°C 34.9°F1.6°C 97% 3.9 mph NE6.3 kmh NE 6.0 mph9.7 kmh 30.18 in1022.0 mb 0.00 in0.0 mm 0.00 in0.0 mm 0.21 in5.3 mm
09:57 AM 35.7°F2.1°C 34.9°F1.6°C 97% 3.2 mph NNE5.1 kmh NNE 6.0 mph9.7 kmh 30.18 in1022.0 mb 0.00 in0.0 mm 0.00 in0.0 mm 0.21 in5.3 mm
10:02 AM 35.8°F2.1°C 35.0°F1.7°C 97% 1.0 mph NNE1.6 kmh NNE 6.0 mph9.7 kmh 30.18 in1022.0 mb 0.00 in0.0 mm 0.00 in0.0 mm 0.21 in5.3 mm
10:07 AM 35.9°F2.2°C 35.1°F1.7°C 97% 2.7 mph NE4.3 kmh NE 6.0 mph9.7 kmh 30.18 in1022.0 mb 0.00 in0.0 mm 0.00 in0.0 mm 0.21 in5.3 mm
10:12 AM 35.8°F2.1°C 35.0°F1.7°C 97% 2.6 mph NE4.2 kmh NE 6.0 mph9.7 kmh 30.18 in1022.0 mb 0.00 in0.0 mm 0.00 in0.0 mm 0.21 in5.3 mm
10:17 AM 35.8°F2.1°C 35.0°F1.7°C 97% 2.6 mph NE4.2 kmh NE 6.0 mph9.7 kmh 30.19 in1022.4 mb 0.00 in0.0 mm 0.00 in0.0 mm 0.21 in5.3 mm
10:22 AM 35.8°F2.1°C 35.0°F1.7°C 97% 2.1 mph NE3.4 kmh NE 6.0 mph9.7 kmh 30.19 in1022.4 mb 0.00 in0.0 mm 0.00 in0.0 mm 0.21 in5.3 mm
10:27 AM 35.9°F2.2°C 35.1°F1.7°C 97% 4.5 mph NE7.2 kmh NE 6.0 mph9.7 kmh 30.19 in1022.4 mb 0.00 in0.0 mm 0.00 in0.0 mm 0.21 in5.3 mm
10:32 AM 35.9°F2.2°C 35.1°F1.7°C 97% 1.8 mph NNE2.9 kmh NNE 6.0 mph9.7 kmh 30.19 in1022.4 mb 0.00 in0.0 mm 0.00 in0.0 mm 0.21 in5.3 mm
10:37 AM 36.1°F2.3°C 35.3°F1.8°C 97% 4.3 mph NE6.9 kmh NE 7.0 mph11.3 kmh 30.19 in1022.4 mb 0.00 in0.0 mm 0.00 in0.0 mm 0.21 in5.3 mm
10:42 AM 36.1°F2.3°C 35.3°F1.8°C 97% 2.3 mph NE3.7 kmh NE 7.0 mph11.3 kmh 30.19 in1022.4 mb 0.00 in0.0 mm 0.00 in0.0 mm 0.21 in5.3 mm
10:47 AM 36.2°F2.3°C 35.4°F1.9°C 97% 3.2 mph NE5.1 kmh NE 7.0 mph11.3 kmh 30.19 in1022.4 mb 0.00 in0.0 mm 0.00 in0.0 mm 0.21 in5.3 mm
10:52 AM 36.3°F2.4°C 35.5°F1.9°C 97% 2.3 mph NE3.7 kmh NE 7.0 mph11.3 kmh 30.19 in1022.4 mb 0.00 in0.0 mm 0.00 in0.0 mm 0.21 in5.3 mm
10:57 AM 36.2°F2.3°C 35.4°F1.9°C 97% 2.5 mph NE4.0 kmh NE 6.0 mph9.7 kmh 30.19 in1022.4 mb 0.00 in0.0 mm 0.00 in0.0 mm 0.21 in5.3 mm
11:02 AM 36.4°F2.4°C 35.6°F2.0°C 97% 2.2 mph NE3.5 kmh NE 6.0 mph9.7 kmh 30.19 in1022.4 mb 0.00 in0.0 mm 0.00 in0.0 mm 0.21 in5.3 mm
11:07 AM 36.5°F2.5°C 35.7°F2.1°C 97% 1.8 mph NE2.9 kmh NE 6.0 mph9.7 kmh 30.19 in1022.4 mb 0.00 in0.0 mm 0.00 in0.0 mm 0.21 in5.3 mm
11:12 AM 36.7°F2.6°C 35.9°F2.2°C 97% 1.9 mph NE3.1 kmh NE 6.0 mph9.7 kmh 30.20 in1022.7 mb 0.00 in0.0 mm 0.00 in0.0 mm 0.21 in5.3 mm
11:17 AM 36.9°F2.7°C 36.1°F2.3°C 97% 1.0 mph NW1.6 kmh NW 6.0 mph9.7 kmh 30.21 in1023.0 mb 0.00 in0.0 mm 0.00 in0.0 mm 0.21 in5.3 mm
11:22 AM 36.9°F2.7°C 36.1°F2.3°C 97% 1.0 mph ENE1.6 kmh ENE 6.0 mph9.7 kmh 30.20 in1022.7 mb 0.00 in0.0 mm 0.00 in0.0 mm 0.21 in5.3 mm
11:27 AM 37.1°F2.8°C 36.3°F2.4°C 97% 1.0 mph E1.6 kmh E 5.0 mph8.0 kmh 30.20 in1022.7 mb 0.00 in0.0 mm 0.00 in0.0 mm 0.21 in5.3 mm
11:32 AM 37.1°F2.8°C 36.3°F2.4°C 97% 1.0 mph E1.6 kmh E 2.0 mph3.2 kmh 30.20 in1022.7 mb 0.00 in0.0 mm 0.00 in0.0 mm 0.21 in5.3 mm
11:37 AM 37.3°F2.9°C 36.8°F2.7°C 98% 1.0 mph ENE1.6 kmh ENE 2.0 mph3.2 kmh 30.20 in1022.7 mb 0.00 in0.0 mm 0.00 in0.0 mm 0.21 in5.3 mm
11:42 AM 37.3°F2.9°C 36.5°F2.5°C 97% 1.2 mph ENE1.9 kmh ENE 2.0 mph3.2 kmh 30.20 in1022.7 mb 0.00 in0.0 mm 0.00 in0.0 mm 0.21 in5.3 mm
11:47 AM 37.3°F2.9°C 36.5°F2.5°C 97% Calm Calm 2.0 mph3.2 kmh 30.20 in1022.7 mb 0.00 in0.0 mm 0.00 in0.0 mm 0.21 in5.3 mm
11:52 AM 37.8°F3.2°C 37.3°F2.9°C 98% 1.0 mph E1.6 kmh E 2.0 mph3.2 kmh 30.20 in1022.7 mb 0.00 in0.0 mm 0.00 in0.0 mm 0.21 in5.3 mm
11:57 AM 37.9°F3.3°C 37.4°F3.0°C 98% 1.0 mph ENE1.6 kmh ENE 2.0 mph3.2 kmh 30.20 in1022.7 mb 0.00 in0.0 mm 0.00 in0.0 mm 0.21 in5.3 mm
12:02 PM 38.1°F3.4°C 37.6°F3.1°C 98% 1.0 mph NE1.6 kmh NE 1.0 mph1.6 kmh 30.20 in1022.7 mb 0.00 in0.0 mm 0.00 in0.0 mm 0.21 in5.3 mm
12:07 PM 38.3°F3.5°C 37.8°F3.2°C 98% Calm Calm 1.0 mph1.6 kmh 30.20 in1022.7 mb 0.00 in0.0 mm 0.00 in0.0 mm 0.21 in5.3 mm
12:12 PM 38.3°F3.5°C 37.8°F3.2°C 98% 1.0 mph NE1.6 kmh NE 1.0 mph1.6 kmh 30.20 in1022.7 mb 0.00 in0.0 mm 0.00 in0.0 mm 0.21 in5.3 mm
12:17 PM 38.4°F3.6°C 37.9°F3.3°C 98% 1.0 mph NE1.6 kmh NE 1.0 mph1.6 kmh 30.20 in1022.7 mb 0.00 in0.0 mm 0.00 in0.0 mm 0.21 in5.3 mm
12:22 PM 38.3°F3.5°C 37.8°F3.2°C 98% 1.1 mph NW1.8 kmh NW 2.0 mph3.2 kmh 30.20 in1022.7 mb 0.00 in0.0 mm 0.00 in0.0 mm 0.21 in5.3 mm
12:27 PM 38.2°F3.4°C 37.4°F3.0°C 97% Calm Calm 2.0 mph3.2 kmh 30.20 in1022.7 mb 0.00 in0.0 mm 0.00 in0.0 mm 0.21 in5.3 mm
12:32 PM 38.4°F3.6°C 37.6°F3.1°C 97% Calm Calm 2.0 mph3.2 kmh 30.20 in1022.7 mb 0.00 in0.0 mm 0.00 in0.0 mm 0.21 in5.3 mm
12:37 PM 38.6°F3.7°C 38.1°F3.4°C 98% 1.0 mph NW1.6 kmh NW 2.0 mph3.2 kmh 30.19 in1022.4 mb 0.00 in0.0 mm 0.00 in0.0 mm 0.21 in5.3 mm
12:42 PM 38.6°F3.7°C 37.8°F3.2°C 97% 1.1 mph NNE1.8 kmh NNE 2.0 mph3.2 kmh 30.19 in1022.4 mb 0.00 in0.0 mm 0.00 in0.0 mm 0.21 in5.3 mm
12:47 PM 39.1°F3.9°C 38.6°F3.7°C 98% Calm Calm 2.0 mph3.2 kmh 30.19 in1022.4 mb 0.00 in0.0 mm 0.00 in0.0 mm 0.21 in5.3 mm
12:52 PM 39.2°F4.0°C 38.7°F3.7°C 98% Calm Calm 2.0 mph3.2 kmh 30.19 in1022.4 mb 0.00 in0.0 mm 0.00 in0.0 mm 0.21 in5.3 mm
12:57 PM 39.4°F4.1°C 38.9°F3.8°C 98% 1.0 mph NNW1.6 kmh NNW 2.0 mph3.2 kmh 30.18 in1022.0 mb 0.00 in0.0 mm 0.00 in0.0 mm 0.21 in5.3 mm
01:02 PM 39.4°F4.1°C 38.9°F3.8°C 98% Calm Calm 1.0 mph1.6 kmh 30.18 in1022.0 mb 0.00 in0.0 mm 0.00 in0.0 mm 0.21 in5.3 mm
01:07 PM 39.4°F4.1°C 38.9°F3.8°C 98% 1.0 mph WNW1.6 kmh WNW 1.0 mph1.6 kmh 30.18 in1022.0 mb 0.00 in0.0 mm 0.00 in0.0 mm 0.21 in5.3 mm
01:12 PM 39.7°F4.3°C 39.2°F4.0°C 98% 1.0 mph NNW1.6 kmh NNW 1.0 mph1.6 kmh 30.18 in1022.0 mb 0.00 in0.0 mm 0.00 in0.0 mm 0.21 in5.3 mm
01:17 PM 39.7°F4.3°C 39.2°F4.0°C 98% 1.7 mph NE2.7 kmh NE 3.0 mph4.8 kmh 30.17 in1021.7 mb 0.00 in0.0 mm 0.00 in0.0 mm 0.21 in5.3 mm
01:22 PM 39.8°F4.3°C 39.3°F4.1°C 98% 1.0 mph NE1.6 kmh NE 3.0 mph4.8 kmh 30.17 in1021.7 mb 0.00 in0.0 mm 0.00 in0.0 mm 0.21 in5.3 mm
01:27 PM 39.8°F4.3°C 39.0°F3.9°C 97% 1.0 mph N1.6 kmh N 3.0 mph4.8 kmh 30.16 in1021.3 mb 0.00 in0.0 mm 0.00 in0.0 mm 0.21 in5.3 mm
01:32 PM 39.9°F4.4°C 39.1°F3.9°C 97% Calm Calm 3.0 mph4.8 kmh 30.16 in1021.3 mb 0.00 in0.0 mm 0.00 in0.0 mm 0.21 in5.3 mm
01:37 PM 40.1°F4.5°C 39.6°F4.2°C 98% Calm Calm 2.0 mph3.2 kmh 30.16 in1021.3 mb 0.00 in0.0 mm 0.00 in0.0 mm 0.21 in5.3 mm
01:42 PM 40.2°F4.6°C 39.7°F4.3°C 98% Calm Calm 2.0 mph3.2 kmh 30.16 in1021.3 mb 0.00 in0.0 mm 0.00 in0.0 mm 0.21 in5.3 mm
01:47 PM 40.3°F4.6°C 39.8°F4.3°C 98% 1.0 mph NW1.6 kmh NW 1.0 mph1.6 kmh 30.16 in1021.3 mb 0.00 in0.0 mm 0.00 in0.0 mm 0.21 in5.3 mm
01:52 PM 40.4°F4.7°C 39.9°F4.4°C 98% Calm Calm 1.0 mph1.6 kmh 30.16 in1021.3 mb 0.00 in0.0 mm 0.00 in0.0 mm 0.21 in5.3 mm
01:57 PM 40.7°F4.8°C 40.2°F4.6°C 98% Calm Calm 1.0 mph1.6 kmh 30.15 in1021.0 mb 0.00 in0.0 mm 0.00 in0.0 mm 0.21 in5.3 mm
02:02 PM 40.9°F4.9°C 40.4°F4.7°C 98% Calm Calm 1.0 mph1.6 kmh 30.16 in1021.3 mb 0.00 in0.0 mm 0.00 in0.0 mm 0.21 in5.3 mm
02:07 PM 40.8°F4.9°C 40.3°F4.6°C 98% 1.0 mph W1.6 kmh W 2.0 mph3.2 kmh 30.16 in1021.3 mb 0.00 in0.0 mm 0.00 in0.0 mm 0.21 in5.3 mm
02:12 PM 41.2°F5.1°C 40.7°F4.8°C 98% 1.0 mph W1.6 kmh W 2.0 mph3.2 kmh 30.16 in1021.3 mb 0.00 in0.0 mm 0.00 in0.0 mm 0.21 in5.3 mm
02:17 PM 41.2°F5.1°C 40.7°F4.8°C 98% 1.3 mph WSW2.1 kmh WSW 2.0 mph3.2 kmh 30.16 in1021.3 mb 0.00 in0.0 mm 0.00 in0.0 mm 0.21 in5.3 mm
02:22 PM 41.3°F5.2°C 40.8°F4.9°C 98% Calm Calm 2.0 mph3.2 kmh 30.16 in1021.3 mb 0.00 in0.0 mm 0.00 in0.0 mm 0.21 in5.3 mm
02:27 PM 41.4°F5.2°C 40.9°F4.9°C 98% 1.0 mph W1.6 kmh W 3.0 mph4.8 kmh 30.16 in1021.3 mb 0.00 in0.0 mm 0.00 in0.0 mm 0.21 in5.3 mm
02:32 PM 41.6°F5.3°C 40.8°F4.9°C 97% 1.2 mph WSW1.9 kmh WSW 3.0 mph4.8 kmh 30.16 in1021.3 mb 0.00 in0.0 mm 0.00 in0.0 mm 0.21 in5.3 mm
02:37 PM 41.9°F5.5°C 41.1°F5.1°C 97% 1.4 mph NW2.3 kmh NW 3.0 mph4.8 kmh 30.16 in1021.3 mb 0.00 in0.0 mm 0.00 in0.0 mm 0.21 in5.3 mm
02:42 PM 41.9°F5.5°C 41.1°F5.1°C 97% 1.9 mph WNW3.1 kmh WNW 4.0 mph6.4 kmh 30.16 in1021.3 mb 0.00 in0.0 mm 0.00 in0.0 mm 0.21 in5.3 mm
02:47 PM 42.0°F5.6°C 41.2°F5.1°C 97% 1.8 mph NW2.9 kmh NW 4.0 mph6.4 kmh 30.16 in1021.3 mb 0.00 in0.0 mm 0.00 in0.0 mm 0.21 in5.3 mm
02:52 PM 42.3°F5.7°C 41.5°F5.3°C 97% 1.0 mph NW1.6 kmh NW 4.0 mph6.4 kmh 30.16 in1021.3 mb 0.00 in0.0 mm 0.00 in0.0 mm 0.21 in5.3 mm
02:56 PM 42.5°F5.8°C 41.7°F5.4°C 97% 1.0 mph W1.6 kmh W 4.0 mph6.4 kmh 30.16 in1021.3 mb 0.00 in0.0 mm 0.00 in0.0 mm 0.21 in5.3 mm
03:01 PM 42.4°F5.8°C 41.6°F5.3°C 97% 2.1 mph WNW3.4 kmh WNW 6.0 mph9.7 kmh 30.16 in1021.3 mb 0.00 in0.0 mm 0.00 in0.0 mm 0.21 in5.3 mm
03:06 PM 42.6°F5.9°C 41.8°F5.4°C 97% 1.6 mph NW2.6 kmh NW 6.0 mph9.7 kmh 30.17 in1021.7 mb 0.00 in0.0 mm 0.00 in0.0 mm 0.21 in5.3 mm
03:11 PM 42.5°F5.8°C 41.7°F5.4°C 97% 2.0 mph NW3.2 kmh NW 6.0 mph9.7 kmh 30.17 in1021.7 mb 0.00 in0.0 mm 0.00 in0.0 mm 0.21 in5.3 mm
03:16 PM 42.6°F5.9°C 41.8°F5.4°C 97% 3.0 mph WNW4.8 kmh WNW 6.0 mph9.7 kmh 30.17 in1021.7 mb 0.00 in0.0 mm 0.00 in0.0 mm 0.21 in5.3 mm
03:21 PM 42.8°F6.0°C 42.0°F5.6°C 97% 3.2 mph NW5.1 kmh NW 6.0 mph9.7 kmh 30.17 in1021.7 mb 0.00 in0.0 mm 0.00 in0.0 mm 0.21 in5.3 mm
03:26 PM 42.8°F6.0°C 41.7°F5.4°C 96% 2.4 mph WNW3.9 kmh WNW 6.0 mph9.7 kmh 30.17 in1021.7 mb 0.00 in0.0 mm 0.00 in0.0 mm 0.21 in5.3 mm
03:31 PM 42.8°F6.0°C 41.7°F5.4°C 96% 2.1 mph W3.4 kmh W 6.0 mph9.7 kmh 30.17 in1021.7 mb 0.00 in0.0 mm 0.00 in0.0 mm 0.21 in5.3 mm
03:36 PM 42.8°F6.0°C 41.7°F5.4°C 96% 2.2 mph NW3.5 kmh NW 6.0 mph9.7 kmh 30.17 in1021.7 mb 0.00 in0.0 mm 0.00 in0.0 mm 0.21 in5.3 mm
03:41 PM 43.0°F6.1°C 41.9°F5.5°C 96% 2.0 mph WNW3.2 kmh WNW 6.0 mph9.7 kmh 30.17 in1021.7 mb 0.00 in0.0 mm 0.00 in0.0 mm 0.21 in5.3 mm
03:46 PM 43.1°F6.2°C 42.0°F5.6°C 96% 2.8 mph NW4.5 kmh NW 7.0 mph11.3 kmh 30.17 in1021.7 mb 0.00 in0.0 mm 0.00 in0.0 mm 0.21 in5.3 mm
03:51 PM 43.1°F6.2°C 42.0°F5.6°C 96% 2.2 mph WNW3.5 kmh WNW 9.0 mph14.5 kmh 30.17 in1021.7 mb 0.00 in0.0 mm 0.00 in0.0 mm 0.21 in5.3 mm
03:56 PM 43.1°F6.2°C 42.0°F5.6°C 96% 2.4 mph NW3.9 kmh NW 9.0 mph14.5 kmh 30.17 in1021.7 mb 0.00 in0.0 mm 0.00 in0.0 mm 0.21 in5.3 mm
04:01 PM 43.1°F6.2°C 42.0°F5.6°C 96% 2.8 mph NW4.5 kmh NW 9.0 mph14.5 kmh 30.18 in1022.0 mb 0.00 in0.0 mm 0.00 in0.0 mm 0.21 in5.3 mm
04:06 PM 43.3°F6.3°C 42.2°F5.7°C 96% 1.1 mph WNW1.8 kmh WNW 6.0 mph9.7 kmh 30.17 in1021.7 mb 0.00 in0.0 mm 0.00 in0.0 mm 0.21 in5.3 mm
04:11 PM 43.9°F6.6°C 42.8°F6.0°C 96% 1.0 mph WSW1.6 kmh WSW 5.0 mph8.0 kmh 30.17 in1021.7 mb 0.00 in0.0 mm 0.00 in0.0 mm 0.21 in5.3 mm
04:16 PM 44.3°F6.8°C 43.2°F6.2°C 96% 1.2 mph WSW1.9 kmh WSW 5.0 mph8.0 kmh 30.17 in1021.7 mb 0.00 in0.0 mm 0.00 in0.0 mm 0.21 in5.3 mm
04:21 PM 44.8°F7.1°C 43.7°F6.5°C 96% Calm Calm 4.0 mph6.4 kmh 30.17 in1021.7 mb 0.00 in0.0 mm 0.00 in0.0 mm 0.21 in5.3 mm
04:26 PM 45.1°F7.3°C 43.4°F6.3°C 94% 3.3 mph WSW5.3 kmh WSW 6.0 mph9.7 kmh 30.17 in1021.7 mb 0.00 in0.0 mm 0.00 in0.0 mm 0.21 in5.3 mm
04:31 PM 45.4°F7.4°C 43.4°F6.3°C 93% 1.7 mph WSW2.7 kmh WSW 8.0 mph12.9 kmh 30.17 in1021.7 mb 0.00 in0.0 mm 0.00 in0.0 mm 0.21 in5.3 mm
04:36 PM 45.5°F7.5°C 43.3°F6.3°C 92% 4.2 mph WNW6.8 kmh WNW 10.0 mph16.1 kmh 30.17 in1021.7 mb 0.00 in0.0 mm 0.00 in0.0 mm 0.21 in5.3 mm
04:41 PM 45.7°F7.6°C 43.2°F6.2°C 91% 5.6 mph WNW9.0 kmh WNW 11.0 mph17.7 kmh 30.17 in1021.7 mb 0.00 in0.0 mm 0.00 in0.0 mm 0.21 in5.3 mm
04:46 PM 46.0°F7.8°C 43.2°F6.2°C 90% 3.5 mph WNW5.6 kmh WNW 11.0 mph17.7 kmh 30.17 in1021.7 mb 0.00 in0.0 mm 0.00 in0.0 mm 0.21 in5.3 mm
04:51 PM 46.1°F7.8°C 42.7°F5.9°C 88% 4.8 mph WNW7.7 kmh WNW 11.0 mph17.7 kmh 30.17 in1021.7 mb 0.00 in0.0 mm 0.00 in0.0 mm 0.21 in5.3 mm
04:56 PM 46.3°F7.9°C 42.9°F6.1°C 88% 5.1 mph NW8.2 kmh NW 11.0 mph17.7 kmh 30.17 in1021.7 mb 0.00 in0.0 mm 0.00 in0.0 mm 0.21 in5.3 mm
05:01 PM 46.5°F8.1°C 43.1°F6.2°C 88% 2.8 mph WNW4.5 kmh WNW 11.0 mph17.7 kmh 30.17 in1021.7 mb 0.00 in0.0 mm 0.00 in0.0 mm 0.21 in5.3 mm
05:06 PM 46.6°F8.1°C 42.9°F6.1°C 87% 2.8 mph W4.5 kmh W 11.0 mph17.7 kmh 30.17 in1021.7 mb 0.00 in0.0 mm 0.00 in0.0 mm 0.21 in5.3 mm
05:11 PM 46.6°F8.1°C 42.9°F6.1°C 87% 3.9 mph WNW6.3 kmh WNW 11.0 mph17.7 kmh 30.17 in1021.7 mb 0.00 in0.0 mm 0.00 in0.0 mm 0.21 in5.3 mm
05:16 PM 46.6°F8.1°C 42.9°F6.1°C 87% 3.4 mph WNW5.5 kmh WNW 8.0 mph12.9 kmh 30.17 in1021.7 mb 0.00 in0.0 mm 0.00 in0.0 mm 0.21 in5.3 mm
05:21 PM 46.8°F8.2°C 43.1°F6.2°C 87% 2.6 mph W4.2 kmh W 8.0 mph12.9 kmh 30.17 in1021.7 mb 0.00 in0.0 mm 0.00 in0.0 mm 0.21 in5.3 mm
05:26 PM 47.0°F8.3°C 43.0°F6.1°C 86% 1.9 mph W3.1 kmh W 8.0 mph12.9 kmh 30.17 in1021.7 mb 0.00 in0.0 mm 0.00 in0.0 mm 0.21 in5.3 mm
05:31 PM 47.1°F8.4°C 43.1°F6.2°C 86% 4.7 mph WNW7.6 kmh WNW 9.0 mph14.5 kmh 30.17 in1021.7 mb 0.00 in0.0 mm 0.00 in0.0 mm 0.21 in5.3 mm
05:36 PM 47.0°F8.3°C 42.7°F5.9°C 85% 6.8 mph W10.9 kmh W 11.0 mph17.7 kmh 30.17 in1021.7 mb 0.00 in0.0 mm 0.00 in0.0 mm 0.21 in5.3 mm
05:41 PM 47.0°F8.3°C 43.0°F6.1°C 86% 2.5 mph NW4.0 kmh NW 11.0 mph17.7 kmh 30.17 in1021.7 mb 0.00 in0.0 mm 0.00 in0.0 mm 0.21 in5.3 mm
05:46 PM 47.1°F8.4°C 43.1°F6.2°C 86% 3.3 mph W5.3 kmh W 11.0 mph17.7 kmh 30.17 in1021.7 mb 0.00 in0.0 mm 0.00 in0.0 mm 0.21 in5.3 mm
05:51 PM 47.1°F8.4°C 43.1°F6.2°C 86% 4.5 mph W7.2 kmh W 11.0 mph17.7 kmh 30.17 in1021.7 mb 0.00 in0.0 mm 0.00 in0.0 mm 0.21 in5.3 mm
05:56 PM 47.1°F8.4°C 43.1°F6.2°C 86% 2.3 mph W3.7 kmh W 9.0 mph14.5 kmh 30.17 in1021.7 mb 0.00 in0.0 mm 0.00 in0.0 mm 0.21 in5.3 mm
06:01 PM 47.1°F8.4°C 42.8°F6.0°C 85% 4.5 mph WNW7.2 kmh WNW 8.0 mph12.9 kmh 30.17 in1021.7 mb 0.00 in0.0 mm 0.00 in0.0 mm 0.21 in5.3 mm
06:06 PM 47.1°F8.4°C 43.1°F6.2°C 86% 2.8 mph WNW4.5 kmh WNW 8.0 mph12.9 kmh 30.17 in1021.7 mb 0.00 in0.0 mm 0.00 in0.0 mm 0.21 in5.3 mm
06:11 PM 47.2°F8.4°C 43.2°F6.2°C 86% 1.4 mph W2.3 kmh W 8.0 mph12.9 kmh 30.17 in1021.7 mb 0.00 in0.0 mm 0.00 in0.0 mm 0.21 in5.3 mm
06:16 PM 47.3°F8.5°C 43.0°F6.1°C 85% 2.8 mph W4.5 kmh W 8.0 mph12.9 kmh 30.17 in1021.7 mb 0.00 in0.0 mm 0.00 in0.0 mm 0.21 in5.3 mm
06:21 PM 47.3°F8.5°C 43.0°F6.1°C 85% 3.3 mph WSW5.3 kmh WSW 8.0 mph12.9 kmh 30.17 in1021.7 mb 0.00 in0.0 mm 0.00 in0.0 mm 0.21 in5.3 mm
06:26 PM 47.1°F8.4°C 43.1°F6.2°C 86% 2.8 mph W4.5 kmh W 8.0 mph12.9 kmh 30.18 in1022.0 mb 0.00 in0.0 mm 0.00 in0.0 mm 0.21 in5.3 mm
06:31 PM 46.9°F8.3°C 42.9°F6.1°C 86% 2.2 mph W3.5 kmh W 8.0 mph12.9 kmh 30.18 in1022.0 mb 0.00 in0.0 mm 0.00 in0.0 mm 0.21 in5.3 mm
06:36 PM 46.8°F8.2°C 42.8°F6.0°C 86% 1.6 mph WSW2.6 kmh WSW 7.0 mph11.3 kmh 30.18 in1022.0 mb 0.00 in0.0 mm 0.00 in0.0 mm 0.21 in5.3 mm
06:41 PM 46.7°F8.2°C 42.7°F5.9°C 86% 3.1 mph W5.0 kmh W 7.0 mph11.3 kmh 30.18 in1022.0 mb 0.00 in0.0 mm 0.00 in0.0 mm 0.21 in5.3 mm
06:46 PM 46.5°F8.1°C 42.8°F6.0°C 87% 1.2 mph WSW1.9 kmh WSW 7.0 mph11.3 kmh 30.18 in1022.0 mb 0.00 in0.0 mm 0.00 in0.0 mm 0.21 in5.3 mm
06:51 PM 46.4°F8.0°C 42.7°F5.9°C 87% 1.4 mph WSW2.3 kmh WSW 5.0 mph8.0 kmh 30.19 in1022.4 mb 0.00 in0.0 mm 0.00 in0.0 mm 0.21 in5.3 mm
06:56 PM 46.3°F7.9°C 42.9°F6.1°C 88% 1.5 mph WSW2.4 kmh WSW 5.0 mph8.0 kmh 30.19 in1022.4 mb 0.00 in0.0 mm 0.00 in0.0 mm 0.21 in5.3 mm
07:01 PM 46.2°F7.9°C 42.8°F6.0°C 88% 1.1 mph SW1.8 kmh SW 4.0 mph6.4 kmh 30.19 in1022.4 mb 0.00 in0.0 mm 0.00 in0.0 mm 0.21 in5.3 mm
07:06 PM 46.1°F7.8°C 43.0°F6.1°C 89% 1.4 mph WSW2.3 kmh WSW 4.0 mph6.4 kmh 30.19 in1022.4 mb 0.00 in0.0 mm 0.00 in0.0 mm 0.21 in5.3 mm
07:11 PM 46.1°F7.8°C 43.0°F6.1°C 89% 1.5 mph WSW2.4 kmh WSW 4.0 mph6.4 kmh 30.19 in1022.4 mb 0.00 in0.0 mm 0.00 in0.0 mm 0.21 in5.3 mm
07:16 PM 46.1°F7.8°C 43.0°F6.1°C 89% 1.0 mph WSW1.6 kmh WSW 4.0 mph6.4 kmh 30.19 in1022.4 mb 0.00 in0.0 mm 0.00 in0.0 mm 0.21 in5.3 mm
07:21 PM 46.0°F7.8°C 42.9°F6.1°C 89% 1.9 mph WSW3.1 kmh WSW 4.0 mph6.4 kmh 30.19 in1022.4 mb 0.00 in0.0 mm 0.00 in0.0 mm 0.21 in5.3 mm
07:26 PM 46.0°F7.8°C 42.9°F6.1°C 89% 1.8 mph WSW2.9 kmh WSW 4.0 mph6.4 kmh 30.19 in1022.4 mb 0.00 in0.0 mm 0.00 in0.0 mm 0.21 in5.3 mm
07:31 PM 46.0°F7.8°C 42.9°F6.1°C 89% 1.0 mph WSW1.6 kmh WSW 4.0 mph6.4 kmh 30.19 in1022.4 mb 0.00 in0.0 mm 0.00 in0.0 mm 0.21 in5.3 mm
07:36 PM 46.0°F7.8°C 42.9°F6.1°C 89% 1.1 mph WSW1.8 kmh WSW 4.0 mph6.4 kmh 30.20 in1022.7 mb 0.00 in0.0 mm 0.00 in0.0 mm 0.21 in5.3 mm
07:41 PM 46.0°F7.8°C 42.9°F6.1°C 89% 1.1 mph WSW1.8 kmh WSW 4.0 mph6.4 kmh 30.20 in1022.7 mb 0.00 in0.0 mm 0.00 in0.0 mm 0.21 in5.3 mm
07:46 PM 46.0°F7.8°C 43.2°F6.2°C 90% 1.0 mph WSW1.6 kmh WSW 4.0 mph6.4 kmh 30.20 in1022.7 mb 0.00 in0.0 mm 0.00 in0.0 mm 0.21 in5.3 mm
07:51 PM 45.9°F7.7°C 43.1°F6.2°C 90% 1.6 mph WSW2.6 kmh WSW 4.0 mph6.4 kmh 30.20 in1022.7 mb 0.00 in0.0 mm 0.00 in0.0 mm 0.21 in5.3 mm
07:55 PM 46.0°F7.8°C 43.2°F6.2°C 90% 1.8 mph WSW2.9 kmh WSW 5.0 mph8.0 kmh 30.21 in1023.0 mb 0.00 in0.0 mm 0.00 in0.0 mm 0.21 in5.3 mm
08:00 PM 46.0°F7.8°C 43.2°F6.2°C 90% 2.1 mph SW3.4 kmh SW 6.0 mph9.7 kmh 30.20 in1022.7 mb 0.00 in0.0 mm 0.00 in0.0 mm 0.21 in5.3 mm
08:05 PM 45.9°F7.7°C 43.1°F6.2°C 90% 2.8 mph WSW4.5 kmh WSW 6.0 mph9.7 kmh 30.20 in1022.7 mb 0.00 in0.0 mm 0.00 in0.0 mm 0.21 in5.3 mm
08:10 PM 45.9°F7.7°C 43.1°F6.2°C 90% 2.5 mph WSW4.0 kmh WSW 6.0 mph9.7 kmh 30.21 in1023.0 mb 0.00 in0.0 mm 0.00 in0.0 mm 0.21 in5.3 mm
08:15 PM 45.9°F7.7°C 43.1°F6.2°C 90% 2.1 mph WSW3.4 kmh WSW 6.0 mph9.7 kmh 30.21 in1023.0 mb 0.00 in0.0 mm 0.00 in0.0 mm 0.21 in5.3 mm
08:20 PM 45.9°F7.7°C 43.1°F6.2°C 90% 1.7 mph WSW2.7 kmh WSW 6.0 mph9.7 kmh 30.21 in1023.0 mb 0.00 in0.0 mm 0.00 in0.0 mm 0.21 in5.3 mm
08:25 PM 45.8°F7.7°C 43.0°F6.1°C 90% 2.3 mph WSW3.7 kmh WSW 6.0 mph9.7 kmh 30.21 in1023.0 mb 0.00 in0.0 mm 0.00 in0.0 mm 0.21 in5.3 mm
08:30 PM 45.8°F7.7°C 43.0°F6.1°C 90% 1.8 mph WSW2.9 kmh WSW 6.0 mph9.7 kmh 30.21 in1023.0 mb 0.00 in0.0 mm 0.00 in0.0 mm 0.21 in5.3 mm
08:35 PM 45.8°F7.7°C 43.0°F6.1°C 90% 2.2 mph WSW3.5 kmh WSW 6.0 mph9.7 kmh 30.21 in1023.0 mb 0.00 in0.0 mm 0.00 in0.0 mm 0.21 in5.3 mm
08:40 PM 45.8°F7.7°C 43.0°F6.1°C 90% 1.9 mph W3.1 kmh W 5.0 mph8.0 kmh 30.21 in1023.0 mb 0.00 in0.0 mm 0.00 in0.0 mm 0.21 in5.3 mm
08:45 PM 45.8°F7.7°C 43.0°F6.1°C 90% 1.4 mph WSW2.3 kmh WSW 5.0 mph8.0 kmh 30.22 in1023.4 mb 0.00 in0.0 mm 0.00 in0.0 mm 0.21 in5.3 mm
08:50 PM 45.8°F7.7°C 43.3°F6.3°C 91% 1.9 mph WSW3.1 kmh WSW 5.0 mph8.0 kmh 30.21 in1023.0 mb 0.00 in0.0 mm 0.00 in0.0 mm 0.21 in5.3 mm
08:55 PM 45.8°F7.7°C 43.3°F6.3°C 91% 1.7 mph WSW2.7 kmh WSW 5.0 mph8.0 kmh 30.22 in1023.4 mb 0.00 in0.0 mm 0.00 in0.0 mm 0.21 in5.3 mm
09:00 PM 45.8°F7.7°C 43.3°F6.3°C 91% 2.5 mph WSW4.0 kmh WSW 5.0 mph8.0 kmh 30.22 in1023.4 mb 0.00 in0.0 mm 0.00 in0.0 mm 0.21 in5.3 mm
09:05 PM 45.7°F7.6°C 43.2°F6.2°C 91% 2.1 mph W3.4 kmh W 5.0 mph8.0 kmh 30.22 in1023.4 mb 0.00 in0.0 mm 0.00 in0.0 mm 0.21 in5.3 mm
09:10 PM 45.8°F7.7°C 43.3°F6.3°C 91% 2.0 mph WSW3.2 kmh WSW 5.0 mph8.0 kmh 30.22 in1023.4 mb 0.00 in0.0 mm 0.00 in0.0 mm 0.21 in5.3 mm
09:15 PM 45.8°F7.7°C 43.3°F6.3°C 91% 3.0 mph WSW4.8 kmh WSW 5.0 mph8.0 kmh 30.22 in1023.4 mb 0.00 in0.0 mm 0.00 in0.0 mm 0.21 in5.3 mm
09:20 PM 45.9°F7.7°C 43.4°F6.3°C 91% 1.7 mph WSW2.7 kmh WSW 5.0 mph8.0 kmh 30.23 in1023.7 mb 0.00 in0.0 mm 0.00 in0.0 mm 0.21 in5.3 mm
09:25 PM 45.8°F7.7°C 43.3°F6.3°C 91% 1.7 mph W2.7 kmh W 5.0 mph8.0 kmh 30.23 in1023.7 mb 0.00 in0.0 mm 0.00 in0.0 mm 0.21 in5.3 mm
09:30 PM 45.9°F7.7°C 43.4°F6.3°C 91% 1.9 mph W3.1 kmh W 5.0 mph8.0 kmh 30.23 in1023.7 mb 0.00 in0.0 mm 0.00 in0.0 mm 0.21 in5.3 mm
09:35 PM 45.9°F7.7°C 43.4°F6.3°C 91% 1.6 mph W2.6 kmh W 6.0 mph9.7 kmh 30.23 in1023.7 mb 0.00 in0.0 mm 0.00 in0.0 mm 0.21 in5.3 mm
09:40 PM 46.0°F7.8°C 43.5°F6.4°C 91% 1.9 mph W3.1 kmh W 6.0 mph9.7 kmh 30.23 in1023.7 mb 0.00 in0.0 mm 0.00 in0.0 mm 0.21 in5.3 mm
09:45 PM 46.0°F7.8°C 43.5°F6.4°C 91% 2.4 mph W3.9 kmh W 6.0 mph9.7 kmh 30.22 in1023.4 mb 0.00 in0.0 mm 0.00 in0.0 mm 0.21 in5.3 mm
09:50 PM 46.0°F7.8°C 43.5°F6.4°C 91% 2.6 mph W4.2 kmh W 5.0 mph8.0 kmh 30.23 in1023.7 mb 0.00 in0.0 mm 0.00 in0.0 mm 0.21 in5.3 mm
09:55 PM 46.1°F7.8°C 43.3°F6.3°C 90% 1.3 mph W2.1 kmh W 5.0 mph8.0 kmh 30.23 in1023.7 mb 0.00 in0.0 mm 0.00 in0.0 mm 0.21 in5.3 mm
10:00 PM 46.2°F7.9°C 43.4°F6.3°C 90% 1.9 mph W3.1 kmh W 6.0 mph9.7 kmh 30.22 in1023.4 mb 0.00 in0.0 mm 0.00 in0.0 mm 0.21 in5.3 mm
10:05 PM 46.3°F7.9°C 43.5°F6.4°C 90% 2.5 mph W4.0 kmh W 6.0 mph9.7 kmh 30.23 in1023.7 mb 0.00 in0.0 mm 0.00 in0.0 mm 0.21 in5.3 mm
10:10 PM 46.3°F7.9°C 43.5°F6.4°C 90% 2.1 mph WNW3.4 kmh WNW 7.0 mph11.3 kmh 30.22 in1023.4 mb 0.00 in0.0 mm 0.00 in0.0 mm 0.21 in5.3 mm
10:15 PM 46.4°F8.0°C 43.6°F6.4°C 90% 4.3 mph WNW6.9 kmh WNW 7.0 mph11.3 kmh 30.22 in1023.4 mb 0.00 in0.0 mm 0.00 in0.0 mm 0.21 in5.3 mm
10:20 PM 46.5°F8.1°C 43.7°F6.5°C 90% 2.2 mph W3.5 kmh W 7.0 mph11.3 kmh 30.22 in1023.4 mb 0.00 in0.0 mm 0.00 in0.0 mm 0.21 in5.3 mm
10:25 PM 46.5°F8.1°C 43.7°F6.5°C 90% 3.4 mph WNW5.5 kmh WNW 7.0 mph11.3 kmh 30.22 in1023.4 mb 0.00 in0.0 mm 0.00 in0.0 mm 0.21 in5.3 mm
10:30 PM 46.6°F8.1°C 43.5°F6.4°C 89% 2.7 mph W4.3 kmh W 9.0 mph14.5 kmh 30.22 in1023.4 mb 0.00 in0.0 mm 0.00 in0.0 mm 0.21 in5.3 mm
10:35 PM 46.6°F8.1°C 43.5°F6.4°C 89% 2.0 mph W3.2 kmh W 9.0 mph14.5 kmh 30.23 in1023.7 mb 0.00 in0.0 mm 0.00 in0.0 mm 0.21 in5.3 mm
10:40 PM 46.6°F8.1°C 43.8°F6.6°C 90% 2.8 mph W4.5 kmh W 9.0 mph14.5 kmh 30.22 in1023.4 mb 0.00 in0.0 mm 0.00 in0.0 mm 0.21 in5.3 mm
10:45 PM 46.6°F8.1°C 43.8°F6.6°C 90% 1.9 mph W3.1 kmh W 9.0 mph14.5 kmh 30.23 in1023.7 mb 0.00 in0.0 mm 0.00 in0.0 mm 0.21 in5.3 mm
10:50 PM 46.6°F8.1°C 43.8°F6.6°C 90% 2.4 mph WNW3.9 kmh WNW 8.0 mph12.9 kmh 30.23 in1023.7 mb 0.00 in0.0 mm 0.00 in0.0 mm 0.21 in5.3 mm
10:56 PM 46.5°F8.1°C 43.7°F6.5°C 90% 2.5 mph WNW4.0 kmh WNW 8.0 mph12.9 kmh 30.23 in1023.7 mb 0.00 in0.0 mm 0.00 in0.0 mm 0.21 in5.3 mm
11:00 PM 46.3°F7.9°C 43.5°F6.4°C 90% 4.0 mph WNW6.4 kmh WNW 7.0 mph11.3 kmh 30.23 in1023.7 mb 0.00 in0.0 mm 0.00 in0.0 mm 0.21 in5.3 mm
11:05 PM 46.3°F7.9°C 43.5°F6.4°C 90% 3.5 mph WNW5.6 kmh WNW 8.0 mph12.9 kmh 30.23 in1023.7 mb 0.00 in0.0 mm 0.00 in0.0 mm 0.21 in5.3 mm
11:10 PM 46.1°F7.8°C 43.3°F6.3°C 90% 3.3 mph WNW5.3 kmh WNW 8.0 mph12.9 kmh 30.23 in1023.7 mb 0.00 in0.0 mm 0.00 in0.0 mm 0.21 in5.3 mm
11:16 PM 46.0°F7.8°C 43.2°F6.2°C 90% 1.9 mph WNW3.1 kmh WNW 8.0 mph12.9 kmh 30.23 in1023.7 mb 0.00 in0.0 mm 0.00 in0.0 mm 0.21 in5.3 mm
11:21 PM 45.8°F7.7°C 43.3°F6.3°C 91% 1.9 mph WNW3.1 kmh WNW 8.0 mph12.9 kmh 30.23 in1023.7 mb 0.00 in0.0 mm 0.00 in0.0 mm 0.21 in5.3 mm
11:25 PM 45.6°F7.6°C 43.1°F6.2°C 91% 2.0 mph WNW3.2 kmh WNW 8.0 mph12.9 kmh 30.23 in1023.7 mb 0.00 in0.0 mm 0.00 in0.0 mm 0.21 in5.3 mm
11:31 PM 45.4°F7.4°C 42.9°F6.1°C 91% 2.1 mph WNW3.4 kmh WNW 7.0 mph11.3 kmh 30.23 in1023.7 mb 0.00 in0.0 mm 0.00 in0.0 mm 0.21 in5.3 mm
11:35 PM 45.2°F7.3°C 43.0°F6.1°C 92% 2.5 mph WNW4.0 kmh WNW 7.0 mph11.3 kmh 30.23 in1023.7 mb 0.00 in0.0 mm 0.00 in0.0 mm 0.21 in5.3 mm
11:40 PM 45.1°F7.3°C 42.9°F6.1°C 92% 2.2 mph WNW3.5 kmh WNW 7.0 mph11.3 kmh 30.23 in1023.7 mb 0.00 in0.0 mm 0.00 in0.0 mm 0.21 in5.3 mm
11:45 PM 44.9°F7.2°C 42.7°F5.9°C 92% 2.4 mph WNW3.9 kmh WNW 7.0 mph11.3 kmh 30.23 in1023.7 mb 0.00 in0.0 mm 0.00 in0.0 mm 0.21 in5.3 mm
11:51 PM 44.8°F7.1°C 42.6°F5.9°C 92% 1.7 mph WNW2.7 kmh WNW 5.0 mph8.0 kmh 30.23 in1023.7 mb 0.00 in0.0 mm 0.00 in0.0 mm 0.21 in5.3 mm
11:56 PM 44.6°F7.0°C 42.7°F5.9°C 93% 1.8 mph WNW2.9 kmh WNW 5.0 mph8.0 kmh 30.23 in1023.7 mb 0.00 in0.0 mm 0.00 in0.0 mm 0.21 in5.3 mm